OKI974 EPSY-LKPR
Flight info
| Callsign | OKI974 |
|---|---|
| Flight time | 1h 1m |
| Altitude | 28000 |
| Route | EPSY/01 N0434F360 UDRO1S UDROV DCT RILAB DCT GOLOP GOLO5R LKPR/30 |
| Aircraft | A20N/M-SDE2E3FGHIJ1RWXYZ/LB1 |
Departure
| Time | 2026-05-05 14:57 |
|---|---|
| Airport | Olsztyn-Mazury Airport (EPSY) |
Arrival
| Time | 2026-05-05 15:59 |
|---|---|
| Airport | Václav Havel Airport Prague (LKPR) |
| Time | Latitude | Longitude | Altitude | Speed | Heading |
|---|---|---|---|---|---|
| 2026-05-05 14:35 | 53.48742 | 20.94493 | 466 ft | 0 kts | 109° |
| 2026-05-05 14:48 | 53.48747 | 20.94469 | 463 ft | 4 kts | 108° |
| 2026-05-05 14:48 | 53.48753 | 20.94435 | 465 ft | 4 kts | 113° |
| 2026-05-05 14:49 | 53.48765 | 20.94402 | 464 ft | 4 kts | 167° |
| 2026-05-05 14:49 | 53.48768 | 20.94379 | 465 ft | 3 kts | 274° |
| 2026-05-05 14:49 | 53.48768 | 20.94383 | 465 ft | 1 kts | 279° |
| 2026-05-05 14:51 | 53.48770 | 20.94370 | 466 ft | 5 kts | 289° |
| 2026-05-05 14:51 | 53.48789 | 20.94279 | 465 ft | 10 kts | 288° |
| 2026-05-05 14:52 | 53.48784 | 20.94152 | 464 ft | 12 kts | 256° |
| 2026-05-05 14:52 | 53.48746 | 20.94084 | 467 ft | 11 kts | 212° |
| 2026-05-05 14:52 | 53.48660 | 20.94037 | 467 ft | 14 kts | 201° |
| 2026-05-05 14:52 | 53.48562 | 20.93979 | 469 ft | 15 kts | 198° |
| 2026-05-05 14:53 | 53.48461 | 20.93925 | 471 ft | 16 kts | 198° |
| 2026-05-05 14:53 | 53.48348 | 20.93861 | 472 ft | 19 kts | 198° |
| 2026-05-05 14:53 | 53.48211 | 20.93783 | 472 ft | 23 kts | 199° |
| 2026-05-05 14:53 | 53.48048 | 20.93693 | 467 ft | 27 kts | 198° |
| 2026-05-05 14:54 | 53.47849 | 20.93578 | 452 ft | 33 kts | 200° |
| 2026-05-05 14:54 | 53.47669 | 20.93452 | 446 ft | 7 kts | 176° |
| 2026-05-05 14:54 | 53.47621 | 20.93454 | 447 ft | 11 kts | 201° |
| 2026-05-05 14:54 | 53.47493 | 20.93371 | 447 ft | 23 kts | 201° |
| 2026-05-05 14:55 | 53.47339 | 20.93270 | 448 ft | 21 kts | 201° |
| 2026-05-05 14:55 | 53.47262 | 20.93221 | 448 ft | 0 kts | 201° |
| 2026-05-05 14:55 | 53.47252 | 20.93230 | 448 ft | 4 kts | 143° |
| 2026-05-05 14:55 | 53.47284 | 20.93264 | 448 ft | 0 kts | 25° |
| 2026-05-05 14:56 | 53.47285 | 20.93265 | 448 ft | 2 kts | 23° |
| 2026-05-05 14:56 | 53.47288 | 20.93266 | 448 ft | 0 kts | 21° |
| 2026-05-05 14:57 | 53.47533 | 20.93401 | 447 ft | 79 kts | 17° |
| 2026-05-05 14:57 | 53.48298 | 20.93836 | 474 ft | 146 kts | 18° |
| 2026-05-05 14:57 | 53.49423 | 20.94481 | 780 ft | 178 kts | 19° |
| 2026-05-05 14:57 | 53.50678 | 20.95178 | 1459 ft | 193 kts | 18° |
| 2026-05-05 14:58 | 53.52013 | 20.95882 | 2513 ft | 193 kts | 19° |
| 2026-05-05 14:58 | 53.53322 | 20.96613 | 3453 ft | 201 kts | 19° |
| 2026-05-05 14:58 | 53.54769 | 20.96756 | 4257 ft | 212 kts | 343° |
| 2026-05-05 14:58 | 53.56035 | 20.95499 | 5038 ft | 216 kts | 308° |
| 2026-05-05 14:59 | 53.56877 | 20.93387 | 5811 ft | 221 kts | 292° |
| 2026-05-05 14:59 | 53.57560 | 20.90979 | 6533 ft | 235 kts | 290° |
| 2026-05-05 14:59 | 53.58297 | 20.88419 | 7296 ft | 251 kts | 292° |
| 2026-05-05 14:59 | 53.59156 | 20.85721 | 8058 ft | 265 kts | 294° |
| 2026-05-05 15:00 | 53.60097 | 20.82980 | 8845 ft | 277 kts | 295° |
| 2026-05-05 15:00 | 53.60754 | 20.81086 | 9374 ft | 283 kts | 291° |
| 2026-05-05 15:00 | 53.61306 | 20.76863 | 10374 ft | 281 kts | 262° |
| 2026-05-05 15:00 | 53.60910 | 20.73560 | 11141 ft | 287 kts | 253° |
| 2026-05-05 15:01 | 53.60401 | 20.70203 | 11908 ft | 297 kts | 253° |
| 2026-05-05 15:01 | 53.59879 | 20.66745 | 12700 ft | 306 kts | 253° |
| 2026-05-05 15:01 | 53.59330 | 20.63073 | 13547 ft | 315 kts | 254° |
| 2026-05-05 15:01 | 53.58784 | 20.59406 | 14279 ft | 323 kts | 254° |
| 2026-05-05 15:02 | 53.58173 | 20.55734 | 15002 ft | 330 kts | 246° |
| 2026-05-05 15:02 | 53.56916 | 20.52425 | 15764 ft | 336 kts | 230° |
| 2026-05-05 15:02 | 53.55259 | 20.49583 | 16530 ft | 343 kts | 225° |
| 2026-05-05 15:02 | 53.53506 | 20.46810 | 17314 ft | 349 kts | 225° |
| 2026-05-05 15:03 | 53.51766 | 20.43973 | 18105 ft | 353 kts | 226° |
| 2026-05-05 15:03 | 53.50019 | 20.40994 | 18824 ft | 357 kts | 227° |
| 2026-05-05 15:03 | 53.48297 | 20.37964 | 19547 ft | 361 kts | 228° |
| 2026-05-05 15:03 | 53.46569 | 20.34878 | 20287 ft | 363 kts | 228° |
| 2026-05-05 15:04 | 53.44842 | 20.31779 | 21038 ft | 365 kts | 228° |
| 2026-05-05 15:04 | 53.43077 | 20.28613 | 21817 ft | 366 kts | 228° |
| 2026-05-05 15:04 | 53.41358 | 20.25535 | 22611 ft | 366 kts | 228° |
| 2026-05-05 15:04 | 53.40488 | 20.23978 | 23018 ft | 365 kts | 228° |
| 2026-05-05 15:05 | 53.37046 | 20.17834 | 24466 ft | 361 kts | 228° |
| 2026-05-05 15:05 | 53.34761 | 20.13765 | 25420 ft | 355 kts | 228° |
| 2026-05-05 15:05 | 53.33646 | 20.11782 | 25915 ft | 350 kts | 228° |
| 2026-05-05 15:06 | 53.31916 | 20.08707 | 26703 ft | 343 kts | 228° |
| 2026-05-05 15:06 | 53.30300 | 20.05839 | 27339 ft | 339 kts | 228° |
| 2026-05-05 15:06 | 53.28679 | 20.02962 | 27717 ft | 342 kts | 228° |
| 2026-05-05 15:06 | 53.27021 | 20.00024 | 27831 ft | 353 kts | 228° |
| 2026-05-05 15:07 | 53.25310 | 19.96996 | 27846 ft | 365 kts | 228° |
| 2026-05-05 15:07 | 53.23511 | 19.93818 | 27853 ft | 378 kts | 228° |
| 2026-05-05 15:07 | 53.21700 | 19.90623 | 27847 ft | 390 kts | 228° |
| 2026-05-05 15:07 | 53.19784 | 19.87251 | 27841 ft | 401 kts | 228° |
| 2026-05-05 15:08 | 53.17808 | 19.83776 | 27844 ft | 413 kts | 227° |
| 2026-05-05 15:08 | 53.15808 | 19.80267 | 27841 ft | 423 kts | 227° |
| 2026-05-05 15:08 | 53.13758 | 19.76673 | 27834 ft | 432 kts | 227° |
| 2026-05-05 15:08 | 53.11663 | 19.73006 | 27834 ft | 441 kts | 227° |
| 2026-05-05 15:09 | 53.09530 | 19.69279 | 27844 ft | 447 kts | 227° |
| 2026-05-05 15:09 | 53.07372 | 19.65514 | 27841 ft | 452 kts | 228° |
| 2026-05-05 15:09 | 53.05320 | 19.61543 | 27825 ft | 454 kts | 233° |
| 2026-05-05 15:09 | 53.03450 | 19.57286 | 27824 ft | 457 kts | 235° |
| 2026-05-05 15:10 | 53.01585 | 19.53001 | 27837 ft | 458 kts | 235° |
| 2026-05-05 15:10 | 52.99710 | 19.48701 | 27837 ft | 459 kts | 235° |
| 2026-05-05 15:10 | 52.97806 | 19.44340 | 27837 ft | 460 kts | 235° |
| 2026-05-05 15:10 | 52.95922 | 19.40034 | 27822 ft | 461 kts | 235° |
| 2026-05-05 15:11 | 52.94031 | 19.35720 | 27816 ft | 462 kts | 235° |
| 2026-05-05 15:11 | 52.92121 | 19.31371 | 27830 ft | 462 kts | 235° |
| 2026-05-05 15:11 | 52.90166 | 19.26930 | 27829 ft | 463 kts | 235° |
| 2026-05-05 15:11 | 52.88269 | 19.22631 | 27824 ft | 463 kts | 235° |
| 2026-05-05 15:12 | 52.86956 | 19.19663 | 27820 ft | 463 kts | 235° |
| 2026-05-05 15:12 | 52.85056 | 19.15372 | 27825 ft | 463 kts | 235° |
| 2026-05-05 15:12 | 52.83746 | 19.12418 | 27822 ft | 464 kts | 235° |
| 2026-05-05 15:12 | 52.81838 | 19.08123 | 27823 ft | 464 kts | 235° |
| 2026-05-05 15:13 | 52.80193 | 19.04427 | 27823 ft | 464 kts | 235° |
| 2026-05-05 15:13 | 52.78277 | 19.00124 | 27820 ft | 463 kts | 235° |
| 2026-05-05 15:13 | 52.76405 | 18.95934 | 27820 ft | 446 kts | 235° |
| 2026-05-05 15:13 | 52.74574 | 18.91841 | 27824 ft | 442 kts | 235° |
| 2026-05-05 15:14 | 52.72742 | 18.87748 | 27825 ft | 445 kts | 235° |
| 2026-05-05 15:14 | 52.70905 | 18.83648 | 27823 ft | 444 kts | 235° |
| 2026-05-05 15:14 | 52.69063 | 18.79548 | 27823 ft | 444 kts | 235° |
| 2026-05-05 15:14 | 52.67220 | 18.75450 | 27823 ft | 444 kts | 235° |
| 2026-05-05 15:15 | 52.65377 | 18.71359 | 27823 ft | 445 kts | 235° |
| 2026-05-05 15:15 | 52.63533 | 18.67274 | 27823 ft | 444 kts | 235° |
| 2026-05-05 15:15 | 52.61668 | 18.63149 | 27821 ft | 445 kts | 235° |
| 2026-05-05 15:15 | 52.59856 | 18.59148 | 27820 ft | 445 kts | 235° |
| 2026-05-05 15:16 | 52.58006 | 18.55068 | 27823 ft | 445 kts | 235° |
| 2026-05-05 15:16 | 52.56148 | 18.50979 | 27824 ft | 445 kts | 235° |
| 2026-05-05 15:16 | 52.54297 | 18.46911 | 27822 ft | 445 kts | 235° |
| 2026-05-05 15:16 | 52.52403 | 18.42754 | 27823 ft | 445 kts | 235° |
| 2026-05-05 15:17 | 52.50485 | 18.38552 | 27825 ft | 445 kts | 235° |
| 2026-05-05 15:17 | 52.48625 | 18.34484 | 27824 ft | 445 kts | 235° |
| 2026-05-05 15:17 | 52.46773 | 18.30440 | 27824 ft | 446 kts | 234° |
| 2026-05-05 15:17 | 52.44899 | 18.26354 | 27820 ft | 446 kts | 234° |
| 2026-05-05 15:18 | 52.43035 | 18.22297 | 27818 ft | 446 kts | 234° |
| 2026-05-05 15:18 | 52.41773 | 18.19554 | 27819 ft | 446 kts | 234° |
| 2026-05-05 15:18 | 52.39902 | 18.15491 | 27816 ft | 446 kts | 234° |
| 2026-05-05 15:18 | 52.37977 | 18.11318 | 27819 ft | 447 kts | 234° |
| 2026-05-05 15:19 | 52.36104 | 18.07265 | 27817 ft | 447 kts | 234° |
| 2026-05-05 15:19 | 52.34226 | 18.03208 | 27819 ft | 447 kts | 234° |
| 2026-05-05 15:19 | 52.32326 | 17.99108 | 27821 ft | 447 kts | 234° |
| 2026-05-05 15:19 | 52.30438 | 17.95042 | 27815 ft | 448 kts | 234° |
| 2026-05-05 15:20 | 52.28553 | 17.90990 | 27817 ft | 448 kts | 234° |
| 2026-05-05 15:20 | 52.26669 | 17.86944 | 27815 ft | 448 kts | 234° |
| 2026-05-05 15:20 | 52.24780 | 17.82896 | 27813 ft | 448 kts | 234° |
| 2026-05-05 15:20 | 52.22889 | 17.78848 | 27816 ft | 448 kts | 234° |
| 2026-05-05 15:21 | 52.20969 | 17.74747 | 27817 ft | 448 kts | 234° |
| 2026-05-05 15:21 | 52.19076 | 17.70709 | 27813 ft | 449 kts | 234° |
| 2026-05-05 15:21 | 52.17180 | 17.66670 | 27817 ft | 448 kts | 234° |
| 2026-05-05 15:21 | 52.15283 | 17.62638 | 27818 ft | 448 kts | 234° |
| 2026-05-05 15:22 | 52.13383 | 17.58602 | 27811 ft | 448 kts | 234° |
| 2026-05-05 15:22 | 52.11456 | 17.54517 | 27815 ft | 449 kts | 234° |
| 2026-05-05 15:22 | 52.09784 | 17.50980 | 27812 ft | 449 kts | 234° |
| 2026-05-05 15:22 | 52.07855 | 17.46903 | 27810 ft | 449 kts | 233° |
| 2026-05-05 15:23 | 52.06078 | 17.43152 | 27809 ft | 449 kts | 233° |
| 2026-05-05 15:23 | 52.04244 | 17.39288 | 27814 ft | 449 kts | 233° |
| 2026-05-05 15:23 | 52.02313 | 17.35226 | 27812 ft | 449 kts | 233° |
| 2026-05-05 15:23 | 52.00402 | 17.31212 | 27804 ft | 449 kts | 233° |
| 2026-05-05 15:24 | 51.98494 | 17.27209 | 27810 ft | 449 kts | 233° |
| 2026-05-05 15:24 | 51.96579 | 17.23196 | 27807 ft | 449 kts | 233° |
| 2026-05-05 15:24 | 51.94648 | 17.19154 | 27808 ft | 449 kts | 233° |
| 2026-05-05 15:24 | 51.92736 | 17.15161 | 27810 ft | 449 kts | 233° |
| 2026-05-05 15:25 | 51.90816 | 17.11160 | 27808 ft | 449 kts | 233° |
| 2026-05-05 15:25 | 51.88901 | 17.07173 | 27808 ft | 449 kts | 233° |
| 2026-05-05 15:25 | 51.86983 | 17.03189 | 27811 ft | 449 kts | 233° |
| 2026-05-05 15:25 | 51.85062 | 16.99204 | 27805 ft | 449 kts | 233° |
| 2026-05-05 15:26 | 51.83129 | 16.95202 | 27806 ft | 449 kts | 233° |
| 2026-05-05 15:26 | 51.81134 | 16.91076 | 27806 ft | 449 kts | 233° |
| 2026-05-05 15:26 | 51.79232 | 16.87150 | 27807 ft | 449 kts | 233° |
| 2026-05-05 15:26 | 51.77282 | 16.83130 | 27809 ft | 449 kts | 233° |
| 2026-05-05 15:27 | 51.75326 | 16.79105 | 27805 ft | 449 kts | 233° |
| 2026-05-05 15:27 | 51.73399 | 16.75147 | 27812 ft | 449 kts | 233° |
| 2026-05-05 15:27 | 51.71441 | 16.71128 | 27815 ft | 449 kts | 233° |
| 2026-05-05 15:27 | 51.69538 | 16.67231 | 27807 ft | 449 kts | 232° |
| 2026-05-05 15:28 | 51.67519 | 16.63103 | 27809 ft | 449 kts | 232° |
| 2026-05-05 15:28 | 51.65580 | 16.59143 | 27810 ft | 450 kts | 232° |
| 2026-05-05 15:28 | 51.63644 | 16.55196 | 27806 ft | 450 kts | 232° |
| 2026-05-05 15:28 | 51.62335 | 16.52532 | 27810 ft | 450 kts | 232° |
| 2026-05-05 15:29 | 51.60380 | 16.48556 | 27809 ft | 450 kts | 232° |
| 2026-05-05 15:29 | 51.58392 | 16.44519 | 27808 ft | 450 kts | 232° |
| 2026-05-05 15:29 | 51.56415 | 16.40512 | 27805 ft | 450 kts | 232° |
| 2026-05-05 15:29 | 51.54448 | 16.36530 | 27811 ft | 451 kts | 232° |
| 2026-05-05 15:30 | 51.52497 | 16.32589 | 27810 ft | 451 kts | 232° |
| 2026-05-05 15:30 | 51.50546 | 16.28650 | 27810 ft | 451 kts | 232° |
| 2026-05-05 15:30 | 51.48591 | 16.24713 | 27806 ft | 451 kts | 232° |
| 2026-05-05 15:30 | 51.46642 | 16.20790 | 27809 ft | 451 kts | 232° |
| 2026-05-05 15:31 | 51.44653 | 16.16796 | 27805 ft | 451 kts | 232° |
| 2026-05-05 15:31 | 51.42662 | 16.12804 | 27807 ft | 451 kts | 232° |
| 2026-05-05 15:31 | 51.40701 | 16.08877 | 27818 ft | 451 kts | 232° |
| 2026-05-05 15:31 | 51.38744 | 16.04965 | 27814 ft | 451 kts | 232° |
| 2026-05-05 15:32 | 51.36778 | 16.01039 | 27812 ft | 451 kts | 232° |
| 2026-05-05 15:32 | 51.34786 | 15.97069 | 27808 ft | 451 kts | 232° |
| 2026-05-05 15:32 | 51.32819 | 15.93154 | 27811 ft | 452 kts | 231° |
| 2026-05-05 15:32 | 51.30850 | 15.89240 | 27818 ft | 452 kts | 231° |
| 2026-05-05 15:33 | 51.28876 | 15.85324 | 27814 ft | 452 kts | 231° |
| 2026-05-05 15:33 | 51.26911 | 15.81430 | 27812 ft | 452 kts | 231° |
| 2026-05-05 15:33 | 51.24905 | 15.77462 | 27812 ft | 452 kts | 231° |
| 2026-05-05 15:33 | 51.22925 | 15.73552 | 27815 ft | 452 kts | 231° |
| 2026-05-05 15:34 | 51.20948 | 15.69652 | 27815 ft | 452 kts | 231° |
| 2026-05-05 15:34 | 51.18939 | 15.65695 | 27815 ft | 452 kts | 231° |
| 2026-05-05 15:34 | 51.16956 | 15.61796 | 27807 ft | 452 kts | 231° |
| 2026-05-05 15:34 | 51.14974 | 15.57906 | 27805 ft | 452 kts | 231° |
| 2026-05-05 15:35 | 51.12989 | 15.54016 | 27816 ft | 452 kts | 231° |
| 2026-05-05 15:35 | 51.11004 | 15.50130 | 27816 ft | 452 kts | 231° |
| 2026-05-05 15:35 | 51.09016 | 15.46244 | 27813 ft | 452 kts | 231° |
| 2026-05-05 15:35 | 51.07163 | 15.42628 | 27812 ft | 452 kts | 231° |
| 2026-05-05 15:36 | 51.05174 | 15.38753 | 27811 ft | 452 kts | 231° |
| 2026-05-05 15:36 | 51.03183 | 15.34879 | 27804 ft | 453 kts | 231° |
| 2026-05-05 15:36 | 51.01208 | 15.31042 | 27595 ft | 442 kts | 231° |
| 2026-05-05 15:36 | 50.99191 | 15.27131 | 27182 ft | 430 kts | 231° |
| 2026-05-05 15:37 | 50.97323 | 15.23512 | 26793 ft | 420 kts | 231° |
| 2026-05-05 15:37 | 50.95488 | 15.19962 | 26410 ft | 412 kts | 231° |
| 2026-05-05 15:37 | 50.93638 | 15.16387 | 25990 ft | 414 kts | 231° |
| 2026-05-05 15:37 | 50.91807 | 15.12854 | 25509 ft | 415 kts | 230° |
| 2026-05-05 15:38 | 50.89981 | 15.09336 | 25022 ft | 411 kts | 230° |
| 2026-05-05 15:38 | 50.88174 | 15.05860 | 24535 ft | 406 kts | 230° |
| 2026-05-05 15:38 | 50.86382 | 15.02416 | 24066 ft | 404 kts | 230° |
| 2026-05-05 15:38 | 50.84593 | 14.98983 | 23602 ft | 403 kts | 230° |
| 2026-05-05 15:39 | 50.82787 | 14.95524 | 23090 ft | 400 kts | 230° |
| 2026-05-05 15:39 | 50.81598 | 14.93247 | 22725 ft | 398 kts | 230° |
| 2026-05-05 15:39 | 50.79836 | 14.89881 | 22186 ft | 396 kts | 230° |
| 2026-05-05 15:39 | 50.78063 | 14.86496 | 21656 ft | 393 kts | 230° |
| 2026-05-05 15:40 | 50.76308 | 14.83149 | 21136 ft | 390 kts | 230° |
| 2026-05-05 15:40 | 50.74575 | 14.79849 | 20628 ft | 388 kts | 230° |
| 2026-05-05 15:40 | 50.72855 | 14.76578 | 20129 ft | 386 kts | 230° |
| 2026-05-05 15:40 | 50.71174 | 14.73384 | 19648 ft | 383 kts | 230° |
| 2026-05-05 15:41 | 50.69448 | 14.70109 | 19159 ft | 381 kts | 230° |
| 2026-05-05 15:41 | 50.67701 | 14.66795 | 18664 ft | 379 kts | 230° |
| 2026-05-05 15:41 | 50.66050 | 14.63667 | 18217 ft | 377 kts | 230° |
| 2026-05-05 15:41 | 50.64378 | 14.60501 | 17698 ft | 376 kts | 230° |
| 2026-05-05 15:42 | 50.62709 | 14.57344 | 17165 ft | 372 kts | 230° |
| 2026-05-05 15:42 | 50.61034 | 14.54179 | 16640 ft | 369 kts | 230° |
| 2026-05-05 15:42 | 50.59317 | 14.51185 | 16122 ft | 367 kts | 224° |
| 2026-05-05 15:42 | 50.57400 | 14.48485 | 15626 ft | 364 kts | 218° |
| 2026-05-05 15:43 | 50.55332 | 14.46177 | 15116 ft | 361 kts | 213° |
| 2026-05-05 15:43 | 50.53230 | 14.44055 | 14636 ft | 359 kts | 213° |
| 2026-05-05 15:43 | 50.51125 | 14.41896 | 14149 ft | 355 kts | 213° |
| 2026-05-05 15:43 | 50.49067 | 14.39774 | 13679 ft | 352 kts | 213° |
| 2026-05-05 15:44 | 50.46924 | 14.37563 | 13135 ft | 348 kts | 213° |
| 2026-05-05 15:44 | 50.44926 | 14.35615 | 12610 ft | 344 kts | 206° |
| 2026-05-05 15:44 | 50.42686 | 14.34428 | 12107 ft | 341 kts | 191° |
| 2026-05-05 15:44 | 50.40333 | 14.34256 | 11600 ft | 339 kts | 175° |
| 2026-05-05 15:45 | 50.37955 | 14.34736 | 11099 ft | 337 kts | 173° |
| 2026-05-05 15:45 | 50.35654 | 14.35212 | 10598 ft | 334 kts | 173° |
| 2026-05-05 15:45 | 50.33346 | 14.35682 | 10118 ft | 332 kts | 173° |
| 2026-05-05 15:45 | 50.31029 | 14.36149 | 9640 ft | 330 kts | 173° |
| 2026-05-05 15:46 | 50.28787 | 14.36598 | 9119 ft | 328 kts | 173° |
| 2026-05-05 15:46 | 50.26490 | 14.37056 | 8597 ft | 325 kts | 173° |
| 2026-05-05 15:46 | 50.24269 | 14.37499 | 8128 ft | 322 kts | 173° |
| 2026-05-05 15:46 | 50.22041 | 14.37940 | 7863 ft | 313 kts | 173° |
| 2026-05-05 15:47 | 50.19918 | 14.38361 | 7600 ft | 304 kts | 172° |
| 2026-05-05 15:47 | 50.18534 | 14.38637 | 7433 ft | 298 kts | 172° |
| 2026-05-05 15:47 | 50.15818 | 14.39190 | 7104 ft | 290 kts | 169° |
| 2026-05-05 15:47 | 50.13942 | 14.40322 | 6862 ft | 293 kts | 146° |
| 2026-05-05 15:48 | 50.12466 | 14.42530 | 6632 ft | 298 kts | 127° |
| 2026-05-05 15:48 | 50.11224 | 14.45102 | 6391 ft | 296 kts | 127° |
| 2026-05-05 15:48 | 50.09961 | 14.47733 | 6143 ft | 292 kts | 127° |
| 2026-05-05 15:48 | 50.08755 | 14.50237 | 5890 ft | 289 kts | 127° |
| 2026-05-05 15:49 | 50.07541 | 14.52744 | 5780 ft | 290 kts | 127° |
| 2026-05-05 15:49 | 50.06347 | 14.55201 | 5764 ft | 277 kts | 127° |
| 2026-05-05 15:49 | 50.05215 | 14.57524 | 5564 ft | 269 kts | 127° |
| 2026-05-05 15:49 | 50.04081 | 14.59844 | 5300 ft | 263 kts | 127° |
| 2026-05-05 15:50 | 50.02988 | 14.62079 | 5058 ft | 257 kts | 127° |
| 2026-05-05 15:50 | 50.01902 | 14.64300 | 4809 ft | 251 kts | 127° |
| 2026-05-05 15:50 | 50.00852 | 14.66446 | 4556 ft | 246 kts | 127° |
| 2026-05-05 15:50 | 49.99824 | 14.68546 | 4299 ft | 242 kts | 127° |
| 2026-05-05 15:51 | 49.98797 | 14.70640 | 4068 ft | 244 kts | 127° |
| 2026-05-05 15:51 | 49.97771 | 14.72730 | 4011 ft | 243 kts | 127° |
| 2026-05-05 15:51 | 49.97044 | 14.74092 | 3991 ft | 243 kts | 137° |
| 2026-05-05 15:51 | 49.95564 | 14.75330 | 4007 ft | 245 kts | 168° |
| 2026-05-05 15:52 | 49.93858 | 14.75239 | 3988 ft | 249 kts | 197° |
| 2026-05-05 15:52 | 49.92369 | 14.73910 | 3994 ft | 248 kts | 216° |
| 2026-05-05 15:52 | 49.91022 | 14.72215 | 3989 ft | 249 kts | 225° |
| 2026-05-05 15:52 | 49.90206 | 14.69887 | 4009 ft | 251 kts | 261° |
| 2026-05-05 15:53 | 49.90415 | 14.67201 | 4006 ft | 255 kts | 292° |
| 2026-05-05 15:53 | 49.91265 | 14.64775 | 3987 ft | 253 kts | 305° |
| 2026-05-05 15:53 | 49.92308 | 14.62569 | 4004 ft | 252 kts | 308° |
| 2026-05-05 15:53 | 49.93374 | 14.60411 | 3995 ft | 254 kts | 308° |
| 2026-05-05 15:54 | 49.94437 | 14.58228 | 4010 ft | 252 kts | 308° |
| 2026-05-05 15:54 | 49.95508 | 14.56028 | 4009 ft | 252 kts | 308° |
| 2026-05-05 15:54 | 49.96574 | 14.53840 | 3986 ft | 255 kts | 308° |
| 2026-05-05 15:54 | 49.97643 | 14.51643 | 3996 ft | 250 kts | 308° |
| 2026-05-05 15:55 | 49.98697 | 14.49476 | 3992 ft | 252 kts | 308° |
| 2026-05-05 15:55 | 49.99740 | 14.47331 | 4004 ft | 243 kts | 308° |
| 2026-05-05 15:55 | 50.00712 | 14.45331 | 3949 ft | 220 kts | 308° |
| 2026-05-05 15:55 | 50.01601 | 14.43505 | 3670 ft | 209 kts | 308° |
| 2026-05-05 15:56 | 50.02440 | 14.41774 | 3444 ft | 194 kts | 308° |
| 2026-05-05 15:56 | 50.03231 | 14.40146 | 3189 ft | 175 kts | 308° |
| 2026-05-05 15:56 | 50.03929 | 14.38709 | 2956 ft | 160 kts | 309° |
| 2026-05-05 15:56 | 50.04576 | 14.37375 | 2749 ft | 149 kts | 309° |
| 2026-05-05 15:57 | 50.05222 | 14.36045 | 2549 ft | 156 kts | 309° |
| 2026-05-05 15:57 | 50.05869 | 14.34716 | 2341 ft | 151 kts | 308° |
| 2026-05-05 15:57 | 50.06495 | 14.33417 | 2148 ft | 152 kts | 309° |
| 2026-05-05 15:57 | 50.07133 | 14.32123 | 1946 ft | 148 kts | 310° |
| 2026-05-05 15:58 | 50.07754 | 14.30837 | 1727 ft | 150 kts | 309° |
| 2026-05-05 15:58 | 50.08385 | 14.29529 | 1492 ft | 150 kts | 308° |
| 2026-05-05 15:58 | 50.09011 | 14.28230 | 1272 ft | 151 kts | 309° |
| 2026-05-05 15:58 | 50.09670 | 14.26878 | 1208 ft | 112 kts | 307° |
| 2026-05-05 15:59 | 50.09988 | 14.26218 | 1195 ft | 62 kts | 307° |
| 2026-05-05 15:59 | 50.10230 | 14.25747 | 1187 ft | 33 kts | 318° |
| 2026-05-05 15:59 | 50.10366 | 14.25659 | 1184 ft | 21 kts | 357° |
| 2026-05-05 15:59 | 50.10401 | 14.25659 | 1183 ft | 0 kts | 0° |
| 2026-05-05 16:01 | 50.10417 | 14.25659 | 1183 ft | 10 kts | 0° |
| 2026-05-05 16:01 | 50.10485 | 14.25739 | 1179 ft | 14 kts | 77° |
| 2026-05-05 16:01 | 50.10508 | 14.25927 | 1174 ft | 21 kts | 79° |
| 2026-05-05 16:01 | 50.10540 | 14.26163 | 1173 ft | 22 kts | 83° |
| 2026-05-05 16:02 | 50.10509 | 14.26305 | 1172 ft | 17 kts | 123° |
| 2026-05-05 16:02 | 50.10443 | 14.26451 | 1171 ft | 11 kts | 126° |
| 2026-05-05 16:02 | 50.10433 | 14.26503 | 1172 ft | 3 kts | 57° |
| 2026-05-05 16:02 | 50.10458 | 14.26530 | 1172 ft | 5 kts | 33° |
| 2026-05-05 16:03 | 50.10462 | 14.26534 | 1171 ft | 0 kts | 33° |
| 2026-05-05 16:03 | 50.10463 | 14.26535 | 1171 ft | 0 kts | 33° |